createdAt,value
2023-02-21T00:01:03.316Z,7.67
2023-02-21T00:03:49.048Z,6.80
2023-02-21T00:06:34.906Z,6.10
2023-02-21T00:09:20.582Z,5.80
2023-02-21T00:12:07.833Z,7.13
2023-02-21T00:14:53.686Z,6.07
2023-02-21T00:17:40.590Z,6.37
2023-02-21T00:20:26.496Z,7.87
2023-02-21T00:23:12.334Z,11.47
2023-02-21T00:25:58.400Z,10.90
2023-02-21T00:28:44.445Z,11.40
2023-02-21T00:31:30.208Z,9.10
2023-02-21T00:34:16.243Z,10.50
2023-02-21T00:37:03.533Z,12.23
2023-02-21T00:39:50.222Z,11.70
2023-02-21T00:42:37.442Z,11.87
2023-02-21T00:45:23.568Z,12.93
2023-02-21T00:48:10.620Z,12.17
2023-02-21T00:50:56.642Z,12.50
2023-02-21T00:53:45.232Z,10.37
2023-02-21T00:56:31.708Z,10.47
2023-02-21T00:59:17.501Z,8.90
2023-02-21T01:02:03.155Z,8.03
2023-02-21T01:04:48.880Z,8.20
2023-02-21T01:07:34.502Z,7.53
2023-02-21T01:10:20.280Z,8.13
2023-02-21T01:13:05.828Z,6.07
2023-02-21T01:15:51.478Z,7.20
2023-02-21T01:18:38.999Z,7.80
2023-02-21T01:21:24.895Z,8.80
2023-02-21T01:24:11.652Z,10.40
2023-02-21T01:26:58.232Z,8.90
2023-02-21T01:29:45.262Z,9.83
2023-02-21T01:32:31.078Z,12.20
2023-02-21T01:35:16.845Z,11.50
2023-02-21T01:38:02.289Z,8.27
2023-02-21T01:40:48.406Z,9.67
2023-02-21T01:43:35.286Z,10.97
2023-02-21T01:46:21.058Z,11.87
2023-02-21T01:49:07.207Z,12.33
2023-02-21T01:51:54.301Z,12.17
2023-02-21T01:54:39.860Z,12.13
2023-02-21T01:57:25.568Z,14.43
2023-02-21T02:00:11.640Z,12.57
2023-02-21T02:02:59.861Z,10.47
2023-02-21T02:05:45.530Z,9.20
2023-02-21T02:08:32.097Z,7.80
2023-02-21T02:11:22.426Z,9.40
2023-02-21T02:13:58.960Z,11.07
2023-02-21T02:16:26.267Z,10.07
2023-02-21T02:19:08.594Z,6.60
2023-02-21T02:21:44.423Z,6.20
2023-02-21T02:24:18.265Z,7.00
2023-02-21T02:26:51.721Z,9.00
2023-02-21T02:29:26.556Z,9.43
2023-02-21T02:32:12.510Z,10.80
2023-02-21T02:34:58.367Z,8.77
2023-02-21T02:37:44.295Z,7.87
2023-02-21T02:40:16.237Z,8.00
2023-02-21T02:42:46.447Z,8.87
2023-02-21T02:45:22.421Z,8.07
2023-02-21T02:47:54.029Z,7.70
2023-02-21T02:50:22.798Z,7.87
2023-02-21T02:52:50.960Z,8.43
2023-02-21T02:55:39.088Z,7.63
2023-02-21T02:58:06.445Z,7.37
2023-02-21T03:00:34.433Z,6.70
2023-02-21T03:03:05.562Z,4.83
2023-02-21T03:05:40.581Z,5.70
2023-02-21T03:08:14.424Z,5.57
2023-02-21T03:10:45.651Z,6.43
2023-02-21T03:13:19.838Z,6.47
2023-02-21T03:15:50.503Z,5.90
2023-02-21T03:18:17.937Z,6.00
2023-02-21T03:20:46.890Z,6.70
2023-02-21T03:23:15.343Z,4.80
2023-02-21T03:25:43.201Z,4.67
2023-02-21T03:28:10.501Z,5.63
2023-02-21T03:30:37.913Z,5.57
2023-02-21T03:33:06.534Z,5.33
2023-02-21T03:35:35.593Z,5.30
2023-02-21T03:38:03.024Z,4.80
2023-02-21T03:40:31.169Z,4.17
2023-02-21T03:42:59.347Z,4.37
2023-02-21T03:45:26.661Z,4.33
2023-02-21T03:47:54.301Z,5.10
2023-02-21T03:50:23.380Z,4.87
2023-02-21T03:52:51.591Z,6.80
2023-02-21T03:55:18.886Z,5.40
2023-02-21T03:57:47.139Z,5.80
2023-02-21T04:00:14.834Z,8.20
2023-02-21T04:02:42.583Z,6.90
2023-02-21T04:05:10.169Z,6.43
2023-02-21T04:07:37.450Z,5.30
2023-02-21T04:10:06.182Z,4.00
2023-02-21T04:12:33.688Z,4.30
2023-02-21T04:15:01.261Z,5.40
2023-02-21T04:17:29.758Z,6.97
2023-02-21T04:19:58.512Z,6.60
2023-02-21T04:22:26.817Z,8.93
2023-02-21T04:24:54.005Z,7.83
2023-02-21T04:27:21.354Z,7.03
2023-02-21T04:29:48.674Z,7.50
2023-02-21T04:32:16.127Z,6.50
2023-02-21T04:34:44.486Z,6.73
2023-02-21T04:37:11.820Z,7.30
2023-02-21T04:39:39.117Z,5.87
2023-02-21T04:42:06.458Z,6.70
2023-02-21T04:44:34.290Z,7.27
2023-02-21T04:47:02.655Z,6.37
2023-02-21T04:49:30.286Z,7.23
2023-02-21T04:51:57.781Z,5.47
2023-02-21T04:54:25.044Z,5.20
2023-02-21T04:56:53.384Z,5.40
2023-02-21T04:59:20.687Z,5.20
2023-02-21T05:01:47.887Z,6.77
2023-02-21T05:04:15.273Z,5.77
2023-02-21T05:06:43.774Z,5.57
2023-02-21T05:09:11.081Z,5.90
2023-02-21T05:11:38.629Z,5.90
2023-02-21T05:14:06.191Z,5.53
2023-02-21T05:16:33.794Z,5.60
2023-02-21T05:19:04.407Z,6.00
2023-02-21T05:21:34.526Z,4.20
2023-02-21T05:24:01.728Z,4.30
2023-02-21T05:26:33.491Z,4.03
2023-02-21T05:29:02.033Z,4.00
2023-02-21T05:31:30.944Z,4.00
2023-02-21T05:33:58.534Z,3.77
2023-02-21T05:36:26.950Z,4.00
2023-02-21T05:38:55.172Z,4.20
2023-02-21T05:41:22.970Z,4.27
2023-02-21T05:43:50.625Z,4.70
2023-02-21T05:46:32.663Z,4.90
2023-02-21T05:49:00.654Z,6.30
2023-02-21T05:51:28.277Z,5.50
2023-02-21T05:53:55.661Z,5.73
2023-02-21T05:56:22.874Z,5.50
2023-02-21T05:58:50.183Z,4.73
2023-02-21T06:01:17.787Z,5.30
2023-02-21T06:03:45.490Z,5.90
2023-02-21T06:06:12.788Z,5.67
2023-02-21T06:08:44.108Z,5.90
2023-02-21T06:11:11.710Z,4.60
2023-02-21T06:13:39.371Z,4.50
2023-02-21T06:16:07.292Z,3.90
2023-02-21T06:18:35.004Z,5.13
2023-02-21T06:21:03.987Z,5.33
2023-02-21T06:23:31.450Z,5.60
2023-02-21T06:25:58.690Z,5.03
2023-02-21T06:28:32.399Z,5.57
2023-02-21T06:31:00.015Z,4.00
2023-02-21T06:33:27.561Z,4.40
2023-02-21T06:35:55.047Z,4.50
2023-02-21T06:38:22.233Z,3.70
2023-02-21T06:40:50.500Z,3.33
2023-02-21T06:43:18.542Z,4.80
2023-02-21T06:45:45.879Z,4.80
2023-02-21T06:48:16.736Z,4.13
2023-02-21T06:50:44.358Z,5.03
2023-02-21T06:53:11.660Z,5.47
2023-02-21T06:55:40.277Z,5.80
2023-02-21T06:58:07.871Z,4.10
2023-02-21T07:00:35.115Z,3.87
2023-02-21T07:03:02.511Z,4.90
2023-02-21T07:05:35.814Z,4.13
2023-02-21T07:08:03.242Z,5.50
2023-02-21T07:10:30.665Z,4.37
2023-02-21T07:12:58.061Z,3.97
2023-02-21T07:15:26.384Z,4.53
2023-02-21T07:17:54.516Z,4.93
2023-02-21T07:20:22.885Z,5.70
2023-02-21T07:22:50.243Z,5.93
2023-02-21T07:25:19.261Z,5.27
2023-02-21T07:27:49.786Z,5.23
2023-02-21T07:30:17.423Z,5.00
2023-02-21T07:35:11.487Z,4.10
2023-02-21T07:37:41.510Z,4.70
2023-02-21T07:40:09.039Z,5.23
2023-02-21T07:42:36.462Z,4.77
2023-02-21T07:45:04.834Z,4.70
2023-02-21T07:47:32.180Z,4.67
2023-02-21T07:49:59.702Z,5.10
2023-02-21T07:52:26.887Z,4.50
2023-02-21T07:54:54.290Z,5.43
2023-02-21T07:57:22.832Z,12.53
2023-02-21T07:59:51.434Z,7.80
2023-02-21T08:02:19.844Z,8.20
2023-02-21T08:04:50.716Z,8.10
2023-02-21T08:07:19.330Z,15.40
2023-02-21T08:09:47.571Z,14.37
2023-02-21T08:12:15.146Z,11.63
2023-02-21T08:14:42.886Z,8.47
2023-02-21T08:17:10.349Z,6.67
2023-02-21T08:19:37.854Z,6.60
2023-02-21T08:22:05.223Z,6.67
2023-02-21T08:24:32.440Z,10.67
2023-02-21T08:27:00.975Z,15.67
2023-02-21T08:29:29.805Z,15.60
2023-02-21T08:31:57.271Z,12.83
2023-02-21T08:34:25.319Z,12.13
2023-02-21T08:36:52.558Z,11.93
2023-02-21T08:39:21.114Z,11.80
2023-02-21T08:41:53.009Z,15.40
2023-02-21T08:44:23.212Z,15.60
2023-02-21T08:46:50.887Z,12.47
2023-02-21T08:49:18.818Z,12.23
2023-02-21T08:51:46.298Z,10.67
2023-02-21T08:54:14.367Z,13.97
2023-02-21T08:56:41.779Z,17.80
2023-02-21T08:59:10.178Z,17.83
2023-02-21T09:01:37.587Z,15.07
2023-02-21T09:04:05.337Z,15.13
2023-02-21T09:06:32.673Z,13.50
2023-02-21T09:09:01.706Z,14.33
2023-02-21T09:11:29.609Z,14.50
2023-02-21T09:13:57.140Z,15.30
2023-02-21T09:16:24.815Z,29.23
2023-02-21T09:18:56.133Z,15.47
2023-02-21T09:21:23.728Z,12.93
2023-02-21T09:23:52.976Z,11.10
2023-02-21T09:26:20.734Z,10.03
2023-02-21T09:28:48.778Z,10.70
2023-02-21T09:31:16.549Z,10.37
2023-02-21T09:33:45.818Z,9.77
2023-02-21T09:36:14.397Z,9.67
2023-02-21T09:38:42.628Z,9.60
2023-02-21T09:41:10.664Z,8.53
2023-02-21T09:43:46.309Z,11.17
2023-02-21T09:46:15.583Z,9.27
2023-02-21T09:48:43.247Z,9.17
2023-02-21T09:51:10.783Z,7.70
2023-02-21T09:53:43.959Z,9.03
2023-02-21T09:56:22.753Z,8.77
2023-02-21T09:58:50.750Z,7.63
2023-02-21T10:01:42.553Z,8.50
2023-02-21T10:04:38.983Z,9.67
2023-02-21T10:07:14.511Z,6.90
2023-02-21T10:09:53.362Z,7.77
2023-02-21T10:12:42.276Z,6.40
2023-02-21T10:15:30.087Z,6.53
2023-02-21T10:18:21.513Z,8.83
2023-02-21T10:20:50.647Z,7.80
2023-02-21T10:23:36.514Z,7.43
2023-02-21T10:26:10.521Z,6.70
2023-02-21T10:28:38.004Z,8.37
2023-02-21T10:31:37.461Z,6.47
2023-02-21T10:34:05.987Z,6.90
2023-02-21T10:36:34.396Z,6.83
2023-02-21T10:39:12.384Z,5.67
2023-02-21T10:41:41.166Z,6.67
2023-02-21T10:44:10.164Z,6.47
2023-02-21T10:46:48.302Z,5.53
2023-02-21T10:49:22.382Z,5.83
2023-02-21T10:51:49.828Z,6.23
2023-02-21T10:54:19.448Z,6.40
2023-02-21T11:00:32.701Z,6.30
2023-02-21T11:03:04.399Z,6.90
2023-02-21T11:05:31.637Z,6.60
2023-02-21T11:08:00.385Z,6.40
2023-02-21T11:10:38.348Z,6.50
2023-02-21T11:13:14.815Z,6.67
2023-02-21T11:15:42.782Z,6.67
2023-02-21T11:18:22.406Z,5.23
2023-02-21T11:20:50.970Z,6.40
2023-02-21T11:23:19.527Z,6.60
2023-02-21T11:25:48.568Z,6.27
2023-02-21T11:28:18.130Z,7.40
2023-02-21T11:30:48.915Z,6.10
2023-02-21T11:33:20.694Z,7.13
2023-02-21T11:35:48.499Z,6.97
2023-02-21T11:38:44.027Z,6.03
2023-02-21T11:41:32.031Z,6.13
2023-02-21T11:43:59.496Z,6.47
2023-02-21T11:46:26.847Z,7.47
2023-02-21T11:49:08.376Z,6.47
2023-02-21T11:51:43.955Z,6.50
2023-02-21T11:54:11.843Z,6.63
2023-02-21T11:56:57.373Z,7.50
2023-02-21T11:59:27.737Z,6.63
2023-02-21T12:01:55.487Z,5.60
2023-02-21T12:04:43.658Z,6.13
2023-02-21T12:07:18.814Z,5.87
2023-02-21T12:10:03.215Z,5.53
2023-02-21T12:12:33.674Z,5.93
2023-02-21T12:15:02.206Z,5.53
2023-02-21T12:17:50.106Z,7.10
2023-02-21T12:20:20.141Z,6.30
2023-02-21T12:22:56.678Z,6.20
2023-02-21T12:25:30.277Z,6.07
2023-02-21T12:27:58.769Z,6.27
2023-02-21T12:30:47.213Z,6.00
2023-02-21T12:33:19.315Z,6.70
2023-02-21T12:35:49.786Z,6.97
2023-02-21T12:38:32.569Z,6.17
2023-02-21T12:41:02.657Z,6.30
2023-02-21T12:43:43.502Z,6.20
2023-02-21T12:46:17.728Z,6.57
2023-02-21T12:48:56.441Z,6.77
2023-02-21T12:51:26.997Z,6.00
2023-02-21T12:53:57.441Z,6.00
2023-02-21T12:56:26.370Z,5.60
2023-02-21T12:58:56.165Z,7.23
2023-02-21T13:01:53.427Z,6.60
2023-02-21T13:04:38.651Z,6.27
2023-02-21T13:07:20.976Z,5.33
2023-02-21T13:09:50.493Z,5.27
2023-02-21T13:12:37.626Z,5.30
2023-02-21T13:15:11.051Z,5.47
2023-02-21T13:17:39.317Z,5.83
2023-02-21T13:20:10.088Z,4.93
2023-02-21T13:22:56.128Z,6.60
2023-02-21T13:25:29.410Z,5.90
2023-02-21T13:28:06.309Z,5.97
2023-02-21T13:30:35.535Z,6.57
2023-02-21T13:33:03.659Z,6.00
2023-02-21T13:35:35.740Z,6.00
2023-02-21T13:38:03.179Z,6.40
2023-02-21T13:40:39.587Z,5.67
2023-02-21T13:43:46.386Z,5.13
2023-02-21T13:46:46.112Z,5.23
2023-02-21T13:49:31.974Z,6.00
2023-02-21T13:52:29.769Z,6.50
2023-02-21T13:55:15.715Z,5.73
2023-02-21T13:57:43.835Z,5.40
2023-02-21T14:00:26.377Z,6.13
2023-02-21T14:03:26.121Z,5.30
2023-02-21T14:05:57.915Z,5.57
2023-02-21T14:08:34.262Z,5.33
2023-02-21T14:11:07.187Z,5.90
2023-02-21T14:13:37.699Z,5.87
2023-02-21T14:16:14.076Z,5.63
2023-02-21T14:18:42.246Z,6.93
2023-02-21T14:21:27.975Z,5.37
2023-02-21T14:24:10.998Z,5.50
2023-02-21T14:26:50.510Z,6.27
2023-02-21T14:29:18.219Z,5.67
2023-02-21T14:31:51.980Z,5.30
2023-02-21T14:34:24.526Z,7.43
2023-02-21T14:36:52.194Z,5.97
2023-02-21T14:39:19.657Z,5.87
2023-02-21T14:42:21.375Z,5.33
2023-02-21T14:44:56.457Z,5.20
2023-02-21T14:47:26.863Z,4.87
2023-02-21T14:49:54.128Z,6.00
2023-02-21T14:52:24.435Z,5.40
2023-02-21T14:55:12.643Z,6.20
2023-02-21T14:57:46.262Z,5.83
2023-02-21T15:00:19.707Z,6.37
2023-02-21T15:03:10.083Z,5.73
2023-02-21T15:05:50.196Z,5.20
2023-02-21T15:08:19.283Z,4.77
2023-02-21T15:10:50.016Z,5.80
2023-02-21T15:13:27.756Z,5.80
2023-02-21T15:16:25.120Z,5.87
2023-02-21T15:19:00.748Z,5.67
2023-02-21T15:21:28.589Z,4.80
2023-02-21T15:24:23.226Z,5.47
2023-02-21T15:26:50.556Z,5.23
2023-02-21T15:29:18.143Z,5.23
2023-02-21T15:31:46.396Z,5.53
2023-02-21T15:34:23.398Z,5.70
2023-02-21T15:37:01.382Z,5.77
2023-02-21T15:39:33.330Z,6.07
2023-02-21T15:42:00.792Z,4.30
2023-02-21T15:44:29.558Z,5.50
2023-02-21T15:46:59.926Z,6.17
2023-02-21T15:49:32.804Z,5.80
2023-02-21T15:52:00.990Z,5.93
2023-02-21T15:54:29.468Z,4.47
2023-02-21T15:57:03.462Z,4.77
2023-02-21T15:59:31.247Z,4.60
2023-02-21T16:02:09.639Z,5.37
2023-02-21T16:04:37.598Z,4.90
2023-02-21T16:07:05.847Z,6.07
2023-02-21T16:09:35.531Z,5.87
2023-02-21T16:12:11.829Z,5.80
2023-02-21T16:14:44.560Z,5.97
2023-02-21T16:17:15.574Z,5.83
2023-02-21T16:19:43.521Z,5.87
2023-02-21T16:22:13.622Z,5.93
2023-02-21T16:24:42.626Z,5.60
2023-02-21T16:27:12.819Z,5.60
2023-02-21T16:29:41.582Z,6.50
2023-02-21T16:32:19.545Z,6.47
2023-02-21T16:34:47.053Z,6.30
2023-02-21T16:37:14.886Z,5.20
2023-02-21T16:39:42.428Z,5.80
2023-02-21T16:42:09.765Z,6.60
2023-02-21T16:44:37.039Z,6.73
2023-02-21T16:47:04.586Z,6.50
2023-02-21T16:49:31.860Z,5.90
2023-02-21T16:52:00.483Z,5.77
2023-02-21T16:54:28.341Z,6.67
2023-02-21T16:56:55.870Z,5.70
2023-02-21T16:59:26.301Z,5.43
2023-02-21T17:01:53.686Z,6.10
2023-02-21T17:04:23.499Z,5.37
2023-02-21T17:07:28.850Z,6.17
2023-02-21T17:09:56.473Z,5.60
2023-02-21T17:12:24.525Z,6.20
2023-02-21T17:14:51.736Z,6.40
2023-02-21T17:17:20.257Z,6.90
2023-02-21T17:19:48.831Z,6.60
2023-02-21T17:22:16.268Z,5.90
2023-02-21T17:24:43.913Z,6.13
2023-02-21T17:27:13.187Z,6.63
2023-02-21T17:29:40.376Z,7.60
2023-02-21T17:32:07.839Z,5.90
2023-02-21T17:34:35.357Z,7.43
2023-02-21T17:37:02.596Z,7.00
2023-02-21T17:39:30.352Z,8.40
2023-02-21T17:41:57.810Z,6.30
2023-02-21T17:44:27.529Z,7.13
2023-02-21T17:46:56.011Z,7.63
2023-02-21T17:49:25.367Z,7.83
2023-02-21T17:51:53.038Z,7.20
2023-02-21T17:54:22.285Z,7.07
2023-02-21T17:56:50.047Z,7.83
2023-02-21T17:59:17.993Z,7.27
2023-02-21T18:01:45.390Z,6.47
2023-02-21T18:04:16.039Z,7.50
2023-02-21T18:06:43.652Z,8.87
2023-02-21T18:09:11.569Z,7.40
2023-02-21T18:11:40.225Z,7.00
2023-02-21T18:14:07.721Z,8.53
2023-02-21T18:16:35.198Z,7.43
2023-02-21T18:19:03.637Z,7.40
2023-02-21T18:21:30.849Z,7.27
2023-02-21T18:23:58.602Z,7.00
2023-02-21T18:26:25.823Z,7.03
2023-02-21T18:28:53.589Z,7.40
2023-02-21T18:31:24.132Z,7.90
2023-02-21T18:33:51.361Z,7.20
2023-02-21T18:36:21.606Z,7.30
2023-02-21T18:38:50.633Z,7.70
2023-02-21T18:41:19.217Z,6.70
2023-02-21T18:43:46.638Z,8.67
2023-02-21T18:46:15.852Z,13.07
2023-02-21T18:48:43.802Z,10.40
2023-02-21T18:51:11.813Z,7.73
2023-02-21T18:53:39.298Z,6.40
2023-02-21T18:56:11.055Z,6.37
2023-02-21T18:58:39.104Z,7.07
2023-02-21T19:01:07.010Z,6.13
2023-02-21T19:03:35.389Z,6.00
2023-02-21T19:06:04.645Z,7.37
2023-02-21T19:08:34.550Z,6.87
2023-02-21T19:13:51.036Z,7.13
2023-02-21T19:16:21.010Z,6.23
2023-02-21T19:18:54.174Z,7.17
2023-02-21T19:21:21.905Z,6.27
2023-02-21T19:23:49.636Z,6.50
2023-02-21T19:26:17.783Z,7.33
2023-02-21T19:28:46.336Z,7.10
2023-02-21T19:31:16.665Z,6.83
2023-02-21T19:36:26.819Z,7.43
2023-02-21T19:38:57.296Z,8.00
2023-02-21T19:41:25.016Z,6.93
2023-02-21T19:43:55.008Z,6.53
2023-02-21T19:46:23.830Z,6.90
2023-02-21T19:51:33.133Z,9.83
2023-02-21T19:54:01.439Z,8.07
2023-02-21T19:56:33.703Z,7.00
2023-02-21T19:59:32.981Z,6.83
2023-02-21T20:02:02.565Z,6.37
2023-02-21T20:04:31.435Z,7.30
2023-02-21T20:07:01.382Z,7.53
2023-02-21T20:09:48.923Z,8.50
2023-02-21T20:12:44.059Z,6.33
2023-02-21T20:15:55.046Z,7.50
2023-02-21T20:33:01.144Z,7.20
2023-02-21T20:35:36.642Z,8.30
2023-02-21T20:38:13.958Z,7.90
2023-02-21T20:41:01.061Z,5.90
2023-02-21T20:43:36.599Z,6.97
2023-02-21T20:46:50.548Z,6.87
2023-02-21T20:49:19.352Z,7.00
2023-02-21T20:51:46.954Z,7.67
2023-02-21T20:54:20.682Z,6.53
2023-02-21T20:56:52.155Z,7.13
2023-02-21T20:59:43.606Z,7.00
2023-02-21T21:02:13.103Z,6.40
2023-02-21T21:04:43.640Z,6.90
2023-02-21T21:07:14.080Z,6.80
2023-02-21T21:09:45.477Z,6.60
2023-02-21T21:12:14.321Z,7.10
2023-02-21T21:14:44.119Z,6.70
2023-02-21T21:17:14.705Z,8.07
2023-02-21T21:19:43.592Z,9.77
2023-02-21T21:22:15.587Z,10.50
2023-02-21T21:24:47.757Z,17.70
2023-02-21T21:27:18.620Z,13.50
2023-02-21T21:29:46.197Z,12.93
2023-02-21T21:32:34.104Z,10.13
2023-02-21T21:35:07.996Z,12.97
2023-02-21T21:37:37.561Z,14.43
2023-02-21T21:40:19.756Z,10.97
2023-02-21T21:42:52.949Z,9.70
2023-02-21T21:45:29.720Z,9.30
2023-02-21T21:48:00.759Z,8.10
2023-02-21T21:50:28.284Z,6.47
2023-02-21T21:53:01.941Z,6.47
2023-02-21T21:55:30.946Z,6.20
2023-02-21T21:58:00.321Z,6.77
2023-02-21T22:00:32.036Z,6.90
2023-02-21T22:03:02.618Z,7.30
2023-02-21T22:05:34.676Z,7.57
2023-02-21T22:08:08.625Z,8.27
2023-02-21T22:10:40.479Z,7.37
2023-02-21T22:13:14.459Z,6.77
2023-02-21T22:15:44.347Z,6.60
2023-02-21T22:18:13.872Z,7.33
2023-02-21T22:20:43.700Z,8.33
2023-02-21T22:23:12.584Z,6.80
2023-02-21T22:25:42.253Z,9.00
2023-02-21T22:28:13.835Z,9.17
2023-02-21T22:30:41.445Z,7.57
2023-02-21T22:33:09.954Z,6.80
2023-02-21T22:35:38.815Z,8.27
2023-02-21T22:38:08.365Z,6.60
2023-02-21T22:40:44.505Z,9.30
2023-02-21T22:43:14.532Z,8.80
2023-02-21T22:45:50.388Z,8.47
2023-02-21T22:51:40.033Z,7.70
2023-02-21T22:54:17.378Z,7.13
2023-02-21T22:57:05.239Z,8.63
2023-02-21T22:59:42.607Z,8.03
2023-02-21T23:02:12.889Z,7.27
2023-02-21T23:04:43.286Z,7.63
2023-02-21T23:07:12.382Z,7.67
2023-02-21T23:09:59.667Z,7.90
2023-02-21T23:12:27.884Z,9.80
2023-02-21T23:14:58.762Z,8.77
2023-02-21T23:17:32.204Z,8.10
2023-02-21T23:20:01.268Z,7.07
2023-02-21T23:22:32.265Z,7.37
2023-02-21T23:25:01.032Z,7.13
2023-02-21T23:27:36.203Z,7.03
2023-02-21T23:30:16.736Z,8.07
2023-02-21T23:32:48.392Z,8.17
2023-02-21T23:35:23.206Z,9.33
2023-02-21T23:37:54.226Z,8.93
2023-02-21T23:40:25.701Z,8.47
2023-02-21T23:42:59.514Z,7.53
2023-02-21T23:45:32.828Z,7.23
2023-02-21T23:48:00.914Z,8.30
2023-02-21T23:50:34.012Z,7.63
2023-02-21T23:53:01.326Z,7.47
2023-02-21T23:55:36.364Z,9.03
2023-02-21T23:58:14.467Z,7.07
